Time;durP1;ratioP1;P1;durP2;ratioP2;P2;SDS_P1;SDS_P2;PMS_P1;PMS_P2;Temp;Humidity;BMP_temperature;BMP_pressure;BME280_temperature;BME280_humidity;BME280_pressure;Samples;Min_cycle;Max_cycle;Signal;HPM_P1;HPM_P2
2023/10/12 00:00:47;;;;;;;9.80;3.40;;;;;;;;;;5104470;28;20024;-47
2023/10/12 00:03:16;;;;;;;10.88;3.13;;;;;;;;;;5105185;28;20212;-45
2023/10/12 00:05:45;;;;;;;8.98;3.00;;;;;;;;;;5105445;28;20064;-43
2023/10/12 00:08:24;;;;;;;9.25;2.70;;;;;;;;;;5092819;28;20200;-42
2023/10/12 00:10:54;;;;;;;13.20;5.63;;;;;;;;;;5115452;28;20028;-41
2023/10/12 00:13:27;;;;;;;8.30;3.75;;;;;;;;;;5109111;28;20102;-49
2023/10/12 00:15:55;;;;;;;9.23;2.95;;;;;;;;;;5097192;28;20080;-50
2023/10/12 00:18:22;;;;;;;8.90;3.33;;;;;;;;;;5107206;28;20077;-39
2023/10/12 00:20:54;;;;;;;7.20;3.00;;;;;;;;;;5105041;28;20024;-39
2023/10/12 00:23:21;;;;;;;13.05;3.15;;;;;;;;;;5098620;28;20213;-42
2023/10/12 00:25:54;;;;;;;12.20;9.40;;;;;;;;;;5103944;28;20035;-41
2023/10/12 00:28:22;;;;;;;9.15;4.60;;;;;;;;;;5112542;28;20037;-39
2023/10/12 00:30:54;;;;;;;8.25;3.13;;;;;;;;;;5104307;28;20073;-42
2023/10/12 00:33:24;;;;;;;8.15;2.80;;;;;;;;;;5096539;28;20073;-45
2023/10/12 00:35:57;;;;;;;7.22;2.70;;;;;;;;;;5106512;28;20032;-42
2023/10/12 00:38:29;;;;;;;10.23;3.28;;;;;;;;;;5089451;28;20029;-40
2023/10/12 00:41:03;;;;;;;12.02;3.03;;;;;;;;;;5103481;28;20263;-43
2023/10/12 00:43:38;;;;;;;11.27;3.15;;;;;;;;;;5103747;28;20063;-42
2023/10/12 00:46:16;;;;;;;7.95;3.30;;;;;;;;;;5105210;28;20028;-38
2023/10/12 00:48:48;;;;;;;5.57;2.70;;;;;;;;;;5103453;28;20036;-42
2023/10/12 00:51:16;;;;;;;7.78;2.95;;;;;;;;;;5096845;28;20056;-47
2023/10/12 00:53:55;;;;;;;8.13;2.78;;;;;;;;;;5114594;28;20253;-46
2023/10/12 00:56:23;;;;;;;9.95;3.13;;;;;;;;;;5102493;28;20031;-42
2023/10/12 00:58:55;;;;;;;5.63;3.15;;;;;;;;;;5100412;28;20066;-47
2023/10/12 01:01:23;;;;;;;8.07;2.90;;;;;;;;;;5094522;28;20052;-48
2023/10/12 01:03:50;;;;;;;5.05;3.17;;;;;;;;;;5095879;28;20028;-38
2023/10/12 01:08:57;;;;;;;10.02;3.72;;;;;;;;;;5105110;28;20055;-42
2023/10/12 01:11:26;;;;;;;8.48;3.45;;;;;;;;;;5105650;28;20038;-52
2023/10/12 01:16:29;;;;;;;9.05;3.85;;;;;;;;;;5105534;28;20099;-38
2023/10/12 01:19:05;;;;;;;7.13;4.07;;;;;;;;;;5105640;28;20024;-41
2023/10/12 01:21:36;;;;;;;6.65;4.03;;;;;;;;;;5105463;28;20050;-41
2023/10/12 01:24:11;;;;;;;11.75;4.45;;;;;;;;;;5097840;28;20205;-42
2023/10/12 01:26:38;;;;;;;10.48;3.78;;;;;;;;;;5088053;28;20036;-43
2023/10/12 01:29:10;;;;;;;9.82;4.32;;;;;;;;;;5085066;28;20051;-39
2023/10/12 01:31:36;;;;;;;12.75;5.75;;;;;;;;;;5085008;28;20102;-40
2023/10/12 01:34:03;;;;;;;8.52;4.72;;;;;;;;;;5085229;28;20020;-42
2023/10/12 01:36:30;;;;;;;10.00;3.70;;;;;;;;;;5085189;28;20071;-41
2023/10/12 01:39:15;;;;;;;11.88;3.70;;;;;;;;;;5084854;28;20029;-42
2023/10/12 01:41:42;;;;;;;11.98;3.13;;;;;;;;;;5085101;28;20312;-40
2023/10/12 01:44:12;;;;;;;6.00;3.22;;;;;;;;;;5083983;28;20032;-43
2023/10/12 01:46:40;;;;;;;8.52;3.30;;;;;;;;;;5084907;28;20091;-43
2023/10/12 01:49:14;;;;;;;8.75;3.40;;;;;;;;;;5084794;28;20028;-45
2023/10/12 01:51:49;;;;;;;7.68;3.42;;;;;;;;;;5094859;28;20047;-45
2023/10/12 01:54:22;;;;;;;10.75;3.10;;;;;;;;;;5087043;28;20054;-48
2023/10/12 01:56:53;;;;;;;5.88;3.90;;;;;;;;;;5095682;28;20028;-46
2023/10/12 01:59:20;;;;;;;9.25;3.40;;;;;;;;;;5084410;28;20013;-42
2023/10/12 02:01:52;;;;;;;7.80;3.20;;;;;;;;;;5093670;28;20055;-45
2023/10/12 02:04:21;;;;;;;;;;;;;;;;;;5103733;28;20023;-42
2023/10/12 02:06:48;;;;;;;8.50;2.72;;;;;;;;;;5103549;28;19919;-43
2023/10/12 02:09:15;;;;;;;7.10;2.75;;;;;;;;;;5107023;28;20098;-44
2023/10/12 02:11:46;;;;;;;7.28;2.40;;;;;;;;;;5103833;28;20330;-45
2023/10/12 02:14:14;;;;;;;5.30;2.58;;;;;;;;;;5104748;28;20016;-43
2023/10/12 02:16:52;;;;;;;4.93;2.50;;;;;;;;;;5103914;28;20028;-45
2023/10/12 02:19:31;;;;;;;6.75;2.67;;;;;;;;;;5122691;28;20248;-46
2023/10/12 02:22:00;;;;;;;6.47;2.38;;;;;;;;;;5125058;28;20142;-47
2023/10/12 02:24:27;;;;;;;6.82;2.22;;;;;;;;;;5124857;28;20024;-48
2023/10/12 02:26:54;;;;;;;7.30;2.25;;;;;;;;;;5098987;28;20043;-54
2023/10/12 02:29:21;;;;;;;4.63;2.03;;;;;;;;;;5104123;28;20015;-44
2023/10/12 02:34:16;;;;;;;4.80;2.55;;;;;;;;;;5104197;28;20016;-43
2023/10/12 02:39:40;;;;;;;17.38;10.10;;;;;;;;;;5107664;28;20023;-48
2023/10/12 02:47:22;;;;;;;10.20;4.85;;;;;;;;;;5095149;28;20024;-43
2023/10/12 02:50:00;;;;;;;6.30;3.63;;;;;;;;;;5101715;28;20028;-46
2023/10/12 02:52:33;;;;;;;7.47;3.55;;;;;;;;;;5104525;28;20093;-52
2023/10/12 02:57:54;;;;;;;8.25;3.47;;;;;;;;;;5098180;28;20028;-42
2023/10/12 03:03:25;;;;;;;9.30;2.40;;;;;;;;;;5084628;28;20040;-43
2023/10/12 03:05:58;;;;;;;6.95;2.33;;;;;;;;;;5083721;28;20054;-48
2023/10/12 03:08:30;;;;;;;5.13;2.20;;;;;;;;;;5101605;28;20036;-46
2023/10/12 03:13:36;;;;;;;3.42;2.28;;;;;;;;;;5116912;28;20031;-42
2023/10/12 03:16:33;;;;;;;5.93;2.30;;;;;;;;;;5124630;28;20198;-43
2023/10/12 03:19:46;;;;;;;6.68;2.22;;;;;;;;;;5124218;28;20305;-45
2023/10/12 03:21:40;;;;;;;6.50;2.50;;;;;;;;;;5117239;28;20039;-47
2023/10/12 03:24:10;;;;;;;5.75;2.55;;;;;;;;;;5123355;28;20076;-41
2023/10/12 03:26:37;;;;;;;6.25;2.38;;;;;;;;;;5120062;28;20355;-42
2023/10/12 03:29:18;;;;;;;7.88;2.70;;;;;;;;;;5125794;28;20046;-41
2023/10/12 03:34:35;;;;;;;5.47;2.40;;;;;;;;;;5106076;28;20320;-49
2023/10/12 03:37:03;;;;;;;5.38;2.65;;;;;;;;;;5106587;28;20078;-44
2023/10/12 03:39:41;;;;;;;5.70;2.70;;;;;;;;;;5106100;28;20092;-49
2023/10/12 03:42:42;;;;;;;3.55;2.25;;;;;;;;;;5106808;28;20054;-44
2023/10/12 03:45:24;;;;;;;;;;;;;;;;;;5103919;28;20118;-53
2023/10/12 03:50:33;;;;;;;5.72;2.15;;;;;;;;;;5107320;28;20224;-44
2023/10/12 03:53:05;;;;;;;7.95;2.67;;;;;;;;;;5107619;28;20328;-41
2023/10/12 03:55:34;;;;;;;6.75;2.60;;;;;;;;;;5107295;28;20020;-42
2023/10/12 03:58:07;;;;;;;6.35;2.20;;;;;;;;;;5107616;28;20115;-44
2023/10/12 04:00:46;;;;;;;3.50;2.25;;;;;;;;;;5107343;28;20182;-44
2023/10/12 04:03:18;;;;;;;5.47;2.58;;;;;;;;;;5107663;28;20364;-42
2023/10/12 04:08:37;;;;;;;7.30;2.83;;;;;;;;;;5107498;28;20351;-50
2023/10/12 04:11:42;;;;;;;5.13;2.20;;;;;;;;;;5106998;28;20091;-54
2023/10/12 04:21:33;;;;;;;6.43;2.30;;;;;;;;;;5106769;28;20347;-46
2023/10/12 04:29:50;;;;;;;4.85;2.10;;;;;;;;;;5064810;28;20158;-48
2023/10/12 04:32:35;;;;;;;5.07;2.20;;;;;;;;;;5064508;28;20067;-46
2023/10/12 04:35:11;;;;;;;5.45;2.08;;;;;;;;;;5090670;28;20036;-52
2023/10/12 04:37:38;;;;;;;5.55;2.70;;;;;;;;;;5106967;28;20032;-52
2023/10/12 04:40:36;;;;;;;5.72;2.55;;;;;;;;;;5105625;28;20028;-52
2023/10/12 04:42:53;;;;;;;5.25;2.38;;;;;;;;;;5106889;28;20040;-52
2023/10/12 04:47:46;;;;;;;4.20;2.47;;;;;;;;;;5106701;28;20099;-48
2023/10/12 04:50:27;;;;;;;9.02;2.40;;;;;;;;;;5106225;28;20039;-48
2023/10/12 04:53:14;;;;;;;3.88;2.10;;;;;;;;;;5106711;28;20293;-48
2023/10/12 04:55:47;;;;;;;4.88;2.33;;;;;;;;;;5106020;28;20038;-47
2023/10/12 04:58:56;;;;;;;6.55;2.20;;;;;;;;;;5106526;28;20024;-47
2023/10/12 05:01:22;;;;;;;3.08;2.15;;;;;;;;;;5101960;28;20040;-46
2023/10/12 05:04:19;;;;;;;6.53;2.30;;;;;;;;;;5106012;28;20036;-48
2023/10/12 05:06:46;;;;;;;6.35;2.55;;;;;;;;;;5105276;28;20048;-52
2023/10/12 05:09:18;;;;;;;8.35;2.85;;;;;;;;;;5105968;28;20130;-52
2023/10/12 05:11:46;;;;;;;4.60;2.28;;;;;;;;;;5105934;28;20067;-45
2023/10/12 05:14:15;;;;;;;7.25;2.67;;;;;;;;;;5105904;28;20020;-42
2023/10/12 05:16:42;;;;;;;4.40;2.42;;;;;;;;;;5105657;28;20040;-49
2023/10/12 05:19:12;;;;;;;4.47;2.00;;;;;;;;;;5105772;28;20211;-46
2023/10/12 05:21:39;;;;;;;3.47;2.58;;;;;;;;;;5105841;28;20035;-49
2023/10/12 05:24:26;;;;;;;5.80;2.30;;;;;;;;;;5063695;28;20095;-46
2023/10/12 05:27:07;;;;;;;6.57;2.50;;;;;;;;;;5063748;28;20162;-47
2023/10/12 05:29:38;;;;;;;6.15;2.50;;;;;;;;;;5063443;28;20041;-44
2023/10/12 05:32:06;;;;;;;5.88;2.65;;;;;;;;;;5063396;28;20335;-43
2023/10/12 05:39:51;;;;;;;6.70;2.40;;;;;;;;;;5063425;28;20032;-52
2023/10/12 05:42:22;;;;;;;5.05;2.38;;;;;;;;;;5063039;28;20052;-52
2023/10/12 05:44:50;;;;;;;6.43;2.43;;;;;;;;;;5062897;28;20128;-52
2023/10/12 05:47:43;;;;;;;4.30;2.38;;;;;;;;;;5062949;28;20272;-52
2023/10/12 05:50:05;;;;;;;5.72;2.35;;;;;;;;;;5060963;28;20063;-52
2023/10/12 05:52:34;;;;;;;9.70;2.83;;;;;;;;;;5062818;28;20037;-48
2023/10/12 05:55:16;;;;;;;5.20;2.58;;;;;;;;;;5077460;28;20115;-46
2023/10/12 05:57:43;;;;;;;4.67;2.30;;;;;;;;;;5104841;28;20016;-54
2023/10/12 06:00:11;;;;;;;8.82;2.80;;;;;;;;;;5104969;28;20077;-55
2023/10/12 06:02:37;;;;;;;6.13;2.25;;;;;;;;;;5105070;28;20035;-47
2023/10/12 06:05:05;;;;;;;6.00;2.38;;;;;;;;;;5104666;28;20050;-42
2023/10/12 06:07:32;;;;;;;7.10;2.58;;;;;;;;;;5105132;28;20039;-44
2023/10/12 06:09:59;;;;;;;5.55;2.58;;;;;;;;;;5104820;28;20023;-52
2023/10/12 06:12:29;;;;;;;6.47;2.40;;;;;;;;;;5104763;28;20047;-52
2023/10/12 06:14:56;;;;;;;4.80;2.40;;;;;;;;;;5104878;28;20081;-43
2023/10/12 06:17:30;;;;;;;5.82;2.42;;;;;;;;;;5104764;28;20024;-42
2023/10/12 06:20:14;;;;;;;5.65;3.08;;;;;;;;;;5104405;28;20023;-44
2023/10/12 06:22:47;;;;;;;5.60;2.60;;;;;;;;;;5104915;28;20066;-42
2023/10/12 06:25:18;;;;;;;5.03;2.22;;;;;;;;;;5104358;28;20027;-43
2023/10/12 06:27:44;;;;;;;6.13;2.58;;;;;;;;;;5104736;28;20061;-47
2023/10/12 06:30:23;;;;;;;5.93;2.38;;;;;;;;;;5104577;28;20016;-45
2023/10/12 06:32:50;;;;;;;5.50;2.83;;;;;;;;;;5104587;28;20316;-44
2023/10/12 06:45:55;;;;;;;6.90;2.38;;;;;;;;;;5102854;28;20012;-45
2023/10/12 06:51:06;;;;;;;6.97;2.70;;;;;;;;;;5104072;28;20039;-51
2023/10/12 06:53:36;;;;;;;4.47;2.42;;;;;;;;;;5104433;28;20219;-54
2023/10/12 06:58:46;;;;;;;4.15;2.50;;;;;;;;;;5104153;28;20077;-46
2023/10/12 07:01:21;;;;;;;4.25;2.75;;;;;;;;;;5103625;28;20087;-46
2023/10/12 07:03:48;;;;;;;5.78;2.85;;;;;;;;;;5103922;28;20034;-48
2023/10/12 07:06:15;;;;;;;6.40;2.47;;;;;;;;;;5103797;28;20043;-52
2023/10/12 07:08:51;;;;;;;5.60;2.83;;;;;;;;;;5104206;28;20312;-60
2023/10/12 07:11:17;;;;;;;4.45;2.40;;;;;;;;;;5103929;28;20043;-60
2023/10/12 07:13:45;;;;;;;4.53;2.60;;;;;;;;;;5103912;28;20050;-44
2023/10/12 07:16:21;;;;;;;6.60;2.67;;;;;;;;;;5103888;28;20009;-48
2023/10/12 07:18:49;;;;;;;4.07;2.25;;;;;;;;;;5103834;28;20066;-51
2023/10/12 07:21:22;;;;;;;7.32;2.60;;;;;;;;;;5104051;28;20032;-44
2023/10/12 07:23:56;;;;;;;7.38;2.38;;;;;;;;;;5103983;28;20028;-49
2023/10/12 07:26:30;;;;;;;4.38;2.40;;;;;;;;;;5103529;28;20024;-46
2023/10/12 07:28:57;;;;;;;7.13;2.45;;;;;;;;;;5103683;28;20216;-52
2023/10/12 07:31:42;;;;;;;5.63;2.40;;;;;;;;;;5103694;28;20032;-52
2023/10/12 07:34:15;;;;;;;5.03;2.42;;;;;;;;;;5103591;28;20016;-43
2023/10/12 07:41:49;;;;;;;5.22;2.55;;;;;;;;;;5103778;28;20038;-51
2023/10/12 07:44:15;;;;;;;6.40;2.60;;;;;;;;;;5103481;28;20056;-54
2023/10/12 07:46:42;;;;;;;5.20;2.35;;;;;;;;;;5103522;28;20057;-52
2023/10/12 07:54:48;;;;;;;7.78;2.80;;;;;;;;;;5103323;28;20058;-46
2023/10/12 07:57:15;;;;;;;6.00;2.70;;;;;;;;;;5103668;28;20216;-54
2023/10/12 08:21:38;;;;;;;7.35;2.47;;;;;;;;;;5062332;28;20155;-46
2023/10/12 08:32:10;;;;;;;8.80;2.63;;;;;;;;;;5106700;28;20044;-51
2023/10/12 08:39:38;;;;;;;5.82;2.63;;;;;;;;;;5106565;28;20027;-45
2023/10/12 08:44:50;;;;;;;6.57;2.72;;;;;;;;;;5106511;28;20243;-43
2023/10/12 08:50:05;;;;;;;;;;;;;;;;;;5106424;28;20027;-47
2023/10/12 08:52:32;;;;;;;6.10;2.63;;;;;;;;;;5106351;28;19908;-47
2023/10/12 08:55:12;;;;;;;7.63;2.88;;;;;;;;;;5106492;28;20047;-46
2023/10/12 08:57:52;;;;;;;7.15;2.53;;;;;;;;;;5106434;28;20360;-44
2023/10/12 09:03:05;;;;;;;9.30;2.65;;;;;;;;;;5106532;28;20016;-52
2023/10/12 09:05:32;;;;;;;7.13;2.55;;;;;;;;;;5106000;28;20078;-54
2023/10/12 09:08:39;;;;;;;6.63;2.45;;;;;;;;;;5106483;28;20032;-44
2023/10/12 09:10:58;;;;;;;7.90;2.60;;;;;;;;;;5105863;28;20107;-43
2023/10/12 09:13:27;;;;;;;5.65;2.75;;;;;;;;;;5105872;28;20093;-45
2023/10/12 09:15:58;;;;;;;7.65;2.67;;;;;;;;;;5105837;28;20328;-46
2023/10/12 09:18:29;;;;;;;7.45;2.83;;;;;;;;;;5106263;28;20024;-45
2023/10/12 09:29:07;;;;;;;7.05;2.85;;;;;;;;;;5105914;28;20028;-41
2023/10/12 09:36:37;;;;;;;5.68;2.80;;;;;;;;;;5105371;28;20024;-40
2023/10/12 09:39:11;;;;;;;8.38;2.83;;;;;;;;;;5105455;28;20032;-43
2023/10/12 09:41:40;;;;;;;7.72;2.65;;;;;;;;;;5105324;28;20039;-41
2023/10/12 09:44:13;;;;;;;7.68;2.92;;;;;;;;;;5105215;28;20020;-48
2023/10/12 09:46:47;;;;;;;5.18;2.65;;;;;;;;;;5105411;28;20046;-49
2023/10/12 09:49:27;;;;;;;6.75;2.83;;;;;;;;;;5105105;28;20335;-62
2023/10/12 09:51:55;;;;;;;4.88;2.58;;;;;;;;;;5105228;28;20043;-60
2023/10/12 09:54:29;;;;;;;4.30;2.50;;;;;;;;;;5104826;28;20034;-54
2023/10/12 09:57:04;;;;;;;8.05;3.00;;;;;;;;;;5104953;28;20111;-43
2023/10/12 09:59:38;;;;;;;6.05;2.83;;;;;;;;;;5105170;28;20264;-44
2023/10/12 10:05:00;;;;;;;8.13;3.00;;;;;;;;;;5104989;28;20023;-43
2023/10/12 10:07:36;;;;;;;9.80;2.80;;;;;;;;;;5105040;28;20056;-43
2023/10/12 10:10:08;;;;;;;6.43;2.50;;;;;;;;;;5104804;28;20028;-46
2023/10/12 10:12:36;;;;;;;5.97;2.80;;;;;;;;;;5104731;28;20099;-45
2023/10/12 10:15:10;;;;;;;9.20;3.13;;;;;;;;;;5104561;28;20334;-44
2023/10/12 10:17:47;;;;;;;7.80;3.08;;;;;;;;;;5106141;28;20028;-45
2023/10/12 10:22:56;;;;;;;12.00;2.97;;;;;;;;;;5125444;28;20027;-45
2023/10/12 10:25:27;;;;;;;10.07;3.10;;;;;;;;;;5124982;28;20055;-50
2023/10/12 10:27:56;;;;;;;10.00;2.95;;;;;;;;;;5125251;28;20320;-47
2023/10/12 10:30:36;;;;;;;11.00;3.03;;;;;;;;;;5120881;28;20058;-47
2023/10/12 10:33:22;;;;;;;9.98;2.97;;;;;;;;;;5121989;28;20304;-47
2023/10/12 10:35:56;;;;;;;7.95;2.80;;;;;;;;;;5094732;28;20040;-42
2023/10/12 10:38:23;;;;;;;10.38;2.83;;;;;;;;;;5106559;28;20057;-42
2023/10/12 10:40:50;;;;;;;5.72;2.80;;;;;;;;;;5111119;28;20024;-42
2023/10/12 10:43:16;;;;;;;8.32;3.00;;;;;;;;;;5104209;28;20102;-44
2023/10/12 10:46:09;;;;;;;10.90;3.30;;;;;;;;;;5104301;28;20083;-43
2023/10/12 10:48:38;;;;;;;12.27;3.65;;;;;;;;;;5101494;28;20102;-44
2023/10/12 10:53:52;;;;;;;7.65;3.30;;;;;;;;;;5044163;28;20060;-42
2023/10/12 10:56:38;;;;;;;12.02;3.20;;;;;;;;;;5102644;28;20090;-42
2023/10/12 10:59:06;;;;;;;8.73;2.60;;;;;;;;;;5101033;28;20060;-55
2023/10/12 11:01:33;;;;;;;8.90;3.53;;;;;;;;;;5100742;28;20300;-44
2023/10/12 11:04:01;;;;;;;7.47;3.20;;;;;;;;;;5105671;28;20059;-55
2023/10/12 11:06:28;;;;;;;8.48;3.40;;;;;;;;;;5104039;28;20044;-44
2023/10/12 11:09:05;;;;;;;9.60;3.50;;;;;;;;;;5104095;28;20320;-41
2023/10/12 11:11:44;;;;;;;8.57;3.53;;;;;;;;;;5103741;28;20035;-42
2023/10/12 11:14:14;;;;;;;10.27;3.80;;;;;;;;;;5103765;28;20316;-43
2023/10/12 11:16:45;;;;;;;7.90;3.72;;;;;;;;;;5103087;28;20032;-41
2023/10/12 11:19:13;;;;;;;14.32;9.68;;;;;;;;;;5102000;28;20054;-35
2023/10/12 11:21:57;;;;;;;16.08;10.02;;;;;;;;;;5102198;28;20236;-41
2023/10/12 11:24:24;;;;;;;11.18;6.53;;;;;;;;;;5102098;28;20026;-43
2023/10/12 11:26:52;;;;;;;8.45;4.75;;;;;;;;;;5101953;28;20032;-37
2023/10/12 11:29:19;;;;;;;9.48;4.60;;;;;;;;;;5101946;28;20397;-40
2023/10/12 11:32:16;;;;;;;6.68;4.07;;;;;;;;;;5102265;28;20115;-35
2023/10/12 11:34:52;;;;;;;9.40;4.43;;;;;;;;;;5103554;28;20020;-38
2023/10/12 11:37:19;;;;;;;7.18;4.05;;;;;;;;;;5104066;28;20028;-35
2023/10/12 11:39:52;;;;;;;9.82;4.22;;;;;;;;;;5102201;28;20052;-37
2023/10/12 11:42:19;;;;;;;7.03;4.00;;;;;;;;;;5101723;28;20035;-44
2023/10/12 11:44:47;;;;;;;8.05;3.65;;;;;;;;;;5101770;28;20032;-43
2023/10/12 11:47:25;;;;;;;7.13;3.38;;;;;;;;;;5101915;28;20036;-38
2023/10/12 11:49:55;;;;;;;11.05;3.45;;;;;;;;;;5104536;28;20036;-37
2023/10/12 11:52:33;;;;;;;8.63;3.20;;;;;;;;;;5105826;28;20028;-39
2023/10/12 11:55:19;;;;;;;7.85;3.35;;;;;;;;;;5105748;28;20089;-42
2023/10/12 11:57:53;;;;;;;7.68;2.90;;;;;;;;;;5107287;28;20036;-39
2023/10/12 12:00:21;;;;;;;8.05;3.05;;;;;;;;;;5107186;28;20182;-38
2023/10/12 12:02:57;;;;;;;5.88;3.10;;;;;;;;;;5107524;28;20036;-41
2023/10/12 12:05:25;;;;;;;9.00;2.80;;;;;;;;;;5106919;28;20094;-36
2023/10/12 12:07:52;;;;;;;8.45;3.35;;;;;;;;;;5107635;28;20095;-44
2023/10/12 12:10:37;;;;;;;7.50;3.13;;;;;;;;;;5105832;28;20077;-38
2023/10/12 12:13:08;;;;;;;9.95;2.90;;;;;;;;;;5107422;28;20065;-40
2023/10/12 12:15:35;;;;;;;6.53;3.05;;;;;;;;;;5106747;28;20340;-33
2023/10/12 12:18:05;;;;;;;9.73;3.38;;;;;;;;;;5107377;28;20031;-34
2023/10/12 12:20:39;;;;;;;10.98;3.08;;;;;;;;;;5106988;28;20040;-39
2023/10/12 12:23:09;;;;;;;6.88;3.20;;;;;;;;;;5107125;28;20039;-38
2023/10/12 12:25:39;;;;;;;7.00;2.80;;;;;;;;;;5106665;28;20066;-42
2023/10/12 12:28:07;;;;;;;6.80;2.97;;;;;;;;;;5106545;28;20036;-35
2023/10/12 12:30:46;;;;;;;5.35;2.55;;;;;;;;;;5106495;28;20020;-37
2023/10/12 12:33:17;;;;;;;6.57;2.85;;;;;;;;;;5107139;28;20397;-34
2023/10/12 12:35:59;;;;;;;7.30;2.80;;;;;;;;;;5106375;28;20054;-42
2023/10/12 12:41:23;;;;;;;6.57;2.90;;;;;;;;;;5106545;28;19907;-41
2023/10/12 12:43:50;;;;;;;6.60;3.38;;;;;;;;;;5106209;28;20047;-38
2023/10/12 12:46:18;;;;;;;7.47;3.00;;;;;;;;;;5106093;28;20026;-40
2023/10/12 12:48:48;;;;;;;7.85;2.97;;;;;;;;;;5106233;28;20387;-39
2023/10/12 12:51:15;;;;;;;6.53;2.88;;;;;;;;;;5106087;28;20024;-35
2023/10/12 12:53:46;;;;;;;5.85;2.85;;;;;;;;;;5106163;28;20020;-34
2023/10/12 12:56:16;;;;;;;5.88;2.63;;;;;;;;;;5106101;28;20031;-36
2023/10/12 12:58:46;;;;;;;7.20;3.13;;;;;;;;;;5106030;28;20016;-39
2023/10/12 13:01:23;;;;;;;6.07;3.10;;;;;;;;;;5105679;28;20032;-40
2023/10/12 13:03:56;;;;;;;5.10;3.17;;;;;;;;;;5106264;28;20031;-37
2023/10/12 13:06:23;;;;;;;5.72;3.00;;;;;;;;;;5106032;28;20071;-39
2023/10/12 13:08:50;;;;;;;3.72;2.95;;;;;;;;;;5105848;28;20028;-36
2023/10/12 13:11:20;;;;;;;4.55;2.72;;;;;;;;;;5105776;28;20059;-36
2023/10/12 13:13:50;;;;;;;6.55;2.60;;;;;;;;;;5105809;28;20020;-40
2023/10/12 13:16:17;;;;;;;6.50;2.60;;;;;;;;;;5105719;28;20020;-41
2023/10/12 13:18:47;;;;;;;6.85;2.83;;;;;;;;;;5105620;28;20213;-34
2023/10/12 13:21:17;;;;;;;6.88;2.80;;;;;;;;;;5105724;28;20020;-34
2023/10/12 13:23:44;;;;;;;5.95;2.42;;;;;;;;;;5105848;28;20241;-38
2023/10/12 13:26:12;;;;;;;4.40;2.92;;;;;;;;;;5105460;28;20032;-40
2023/10/12 13:28:41;;;;;;;5.80;2.88;;;;;;;;;;5105765;28;20035;-39
2023/10/12 13:31:10;;;;;;;6.28;3.33;;;;;;;;;;5105570;28;20022;-37
2023/10/12 13:33:40;;;;;;;9.23;2.78;;;;;;;;;;5105366;28;20039;-44
2023/10/12 13:36:08;;;;;;;5.40;2.50;;;;;;;;;;5105357;28;20086;-37
2023/10/12 13:38:37;;;;;;;4.68;2.20;;;;;;;;;;5105272;28;20020;-37
2023/10/12 13:41:04;;;;;;;5.63;3.05;;;;;;;;;;5105189;28;20042;-33
2023/10/12 13:43:30;;;;;;;4.85;2.95;;;;;;;;;;5105409;28;20316;-39
2023/10/12 13:45:58;;;;;;;5.43;3.00;;;;;;;;;;5105351;28;20081;-43
2023/10/12 13:48:28;;;;;;;5.65;2.85;;;;;;;;;;5105525;28;20028;-35
2023/10/12 13:51:08;;;;;;;4.75;2.53;;;;;;;;;;5105062;28;20207;-44
2023/10/12 13:53:38;;;;;;;3.85;2.30;;;;;;;;;;5104916;28;20087;-37
2023/10/12 13:56:08;;;;;;;7.70;3.15;;;;;;;;;;5105370;28;20258;-37
2023/10/12 13:58:37;;;;;;;21.50;3.50;;;;;;;;;;5104986;28;20303;-38
2023/10/12 14:01:04;;;;;;;12.95;3.20;;;;;;;;;;5104818;28;20036;-44
2023/10/12 14:03:53;;;;;;;13.98;3.33;;;;;;;;;;5105788;28;20087;-38
2023/10/12 14:06:20;;;;;;;10.65;3.65;;;;;;;;;;5103334;28;20078;-35
2023/10/12 14:08:47;;;;;;;13.23;3.20;;;;;;;;;;5104747;28;20032;-44
2023/10/12 14:11:14;;;;;;;13.55;3.72;;;;;;;;;;5086232;28;20112;-40
2023/10/12 14:13:41;;;;;;;9.02;3.25;;;;;;;;;;5104956;28;20368;-44
2023/10/12 14:16:09;;;;;;;12.68;3.63;;;;;;;;;;5103226;28;20274;-41
2023/10/12 14:18:36;;;;;;;8.40;3.50;;;;;;;;;;5104905;28;20201;-34
2023/10/12 14:21:02;;;;;;;5.72;3.28;;;;;;;;;;5104530;28;20020;-40
2023/10/12 14:23:38;;;;;;;9.40;3.03;;;;;;;;;;5104861;28;20036;-43
2023/10/12 14:26:04;;;;;;;8.90;3.67;;;;;;;;;;5104304;28;20221;-38
2023/10/12 14:28:34;;;;;;;9.55;3.10;;;;;;;;;;5105081;28;20028;-39
2023/10/12 14:31:01;;;;;;;6.72;3.00;;;;;;;;;;5104329;28;20058;-36
2023/10/12 14:33:31;;;;;;;7.57;3.00;;;;;;;;;;5104818;28;20022;-40
2023/10/12 14:35:58;;;;;;;5.40;3.33;;;;;;;;;;5104230;28;20035;-34
2023/10/12 14:38:25;;;;;;;9.45;3.42;;;;;;;;;;5104792;28;20093;-40
2023/10/12 14:40:56;;;;;;;5.88;3.10;;;;;;;;;;5104181;28;20016;-38
2023/10/12 14:43:30;;;;;;;6.03;3.45;;;;;;;;;;5104083;28;20220;-49
2023/10/12 14:45:57;;;;;;;7.07;3.15;;;;;;;;;;5104053;28;20030;-41
2023/10/12 14:48:24;;;;;;;6.53;3.20;;;;;;;;;;5104574;28;20028;-39
2023/10/12 14:51:01;;;;;;;7.28;3.53;;;;;;;;;;5104092;28;20044;-42
2023/10/12 14:53:28;;;;;;;4.93;2.95;;;;;;;;;;5104367;28;20027;-35
2023/10/12 14:55:55;;;;;;;4.53;3.20;;;;;;;;;;5104098;28;20061;-41
2023/10/12 14:58:26;;;;;;;4.05;3.25;;;;;;;;;;5103879;28;20016;-40
2023/10/12 15:00:53;;;;;;;7.13;3.58;;;;;;;;;;5103946;28;20032;-34
2023/10/12 15:03:23;;;;;;;4.50;3.63;;;;;;;;;;5104420;28;20027;-45
2023/10/12 15:05:53;;;;;;;4.90;3.25;;;;;;;;;;5103795;28;20056;-42
2023/10/12 15:08:20;;;;;;;6.05;3.75;;;;;;;;;;5104284;28;20082;-41
2023/10/12 15:10:47;;;;;;;7.10;3.63;;;;;;;;;;5103965;28;20036;-39
2023/10/12 15:13:16;;;;;;;9.43;4.03;;;;;;;;;;5104329;28;20022;-46
2023/10/12 15:15:45;;;;;;;6.05;3.47;;;;;;;;;;5103650;28;20035;-42
2023/10/12 15:18:17;;;;;;;8.93;3.50;;;;;;;;;;5104054;28;20024;-38
2023/10/12 15:20:44;;;;;;;6.88;3.78;;;;;;;;;;5103463;28;20028;-40
2023/10/12 15:23:16;;;;;;;5.53;3.58;;;;;;;;;;5105825;28;20349;-41
2023/10/12 15:25:44;;;;;;;7.10;3.90;;;;;;;;;;5107884;28;20020;-37
2023/10/12 15:28:11;;;;;;;5.30;3.50;;;;;;;;;;5107601;28;20023;-40
2023/10/12 15:30:45;;;;;;;8.40;4.20;;;;;;;;;;5107731;28;20024;-46
2023/10/12 15:33:12;;;;;;;5.43;3.78;;;;;;;;;;5108036;28;20056;-40
2023/10/12 15:35:40;;;;;;;8.32;4.00;;;;;;;;;;5107691;28;20027;-40
2023/10/12 15:38:06;;;;;;;13.90;4.38;;;;;;;;;;5108130;28;20020;-48
2023/10/12 15:40:36;;;;;;;15.05;4.00;;;;;;;;;;5107570;28;20087;-37
2023/10/12 15:43:14;;;;;;;15.63;4.60;;;;;;;;;;5107369;28;20028;-35
2023/10/12 15:45:46;;;;;;;17.17;4.38;;;;;;;;;;5107431;28;20324;-36
2023/10/12 15:48:14;;;;;;;43.00;5.38;;;;;;;;;;5106267;28;20217;-44
2023/10/12 15:50:43;;;;;;;20.45;4.40;;;;;;;;;;5107368;28;20032;-38
2023/10/12 15:53:10;;;;;;;25.67;4.40;;;;;;;;;;5107676;28;20091;-40
2023/10/12 15:55:39;;;;;;;26.95;4.35;;;;;;;;;;5107389;28;20036;-42
2023/10/12 15:58:05;;;;;;;19.85;4.45;;;;;;;;;;5107567;28;20028;-42
2023/10/12 16:00:32;;;;;;;13.57;4.10;;;;;;;;;;5107441;28;20020;-43
2023/10/12 16:03:00;;;;;;;17.30;4.05;;;;;;;;;;5107376;28;20036;-41
2023/10/12 16:05:28;;;;;;;14.32;4.03;;;;;;;;;;5107110;28;20249;-41
2023/10/12 16:07:55;;;;;;;8.32;3.50;;;;;;;;;;5107503;28;20024;-37
2023/10/12 16:10:22;;;;;;;8.35;3.40;;;;;;;;;;5106849;28;20040;-47
2023/10/12 16:12:49;;;;;;;9.27;3.70;;;;;;;;;;5107376;28;20028;-41
2023/10/12 16:15:16;;;;;;;8.35;3.78;;;;;;;;;;5106816;28;20028;-42
2023/10/12 16:17:45;;;;;;;10.32;3.50;;;;;;;;;;5107043;28;20028;-41
2023/10/12 16:20:14;;;;;;;8.32;3.53;;;;;;;;;;5107022;28;20028;-36
2023/10/12 16:22:45;;;;;;;8.50;3.53;;;;;;;;;;5107234;28;20020;-36
2023/10/12 16:25:19;;;;;;;7.07;3.70;;;;;;;;;;5106841;28;20078;-38
2023/10/12 16:27:50;;;;;;;4.97;3.30;;;;;;;;;;5106794;28;20168;-44
2023/10/12 16:30:18;;;;;;;5.57;3.45;;;;;;;;;;5106464;28;20205;-43
2023/10/12 16:32:51;;;;;;;5.55;3.10;;;;;;;;;;5106913;28;20031;-40
2023/10/12 16:35:20;;;;;;;7.80;3.72;;;;;;;;;;5105823;28;20020;-45
2023/10/12 16:37:50;;;;;;;5.75;3.30;;;;;;;;;;5106550;28;20133;-37
2023/10/12 16:40:18;;;;;;;13.15;3.47;;;;;;;;;;5106527;28;20030;-36
2023/10/12 16:42:47;;;;;;;8.35;3.58;;;;;;;;;;5106721;28;20058;-42
2023/10/12 16:45:15;;;;;;;8.05;3.20;;;;;;;;;;5106390;28;20227;-39
2023/10/12 16:47:42;;;;;;;7.55;3.63;;;;;;;;;;5106789;28;20051;-51
2023/10/12 16:50:11;;;;;;;7.28;3.40;;;;;;;;;;5106425;28;20091;-42
2023/10/12 16:52:38;;;;;;;6.82;3.08;;;;;;;;;;5106412;28;20322;-42
2023/10/12 16:55:06;;;;;;;6.20;3.60;;;;;;;;;;5106376;28;20020;-40
2023/10/12 16:57:33;;;;;;;7.53;3.15;;;;;;;;;;5106319;28;20016;-36
2023/10/12 17:00:00;;;;;;;6.70;3.33;;;;;;;;;;5106064;28;20028;-50
2023/10/12 17:02:29;;;;;;;4.15;2.90;;;;;;;;;;5106378;28;20020;-47
2023/10/12 17:04:59;;;;;;;8.05;3.00;;;;;;;;;;5106004;28;20046;-37
2023/10/12 17:07:26;;;;;;;6.57;3.42;;;;;;;;;;5106232;28;20311;-39
2023/10/12 17:09:56;;;;;;;6.45;3.35;;;;;;;;;;5106237;28;20044;-35
2023/10/12 17:12:23;;;;;;;6.70;3.30;;;;;;;;;;5105989;28;20062;-35
2023/10/12 17:14:51;;;;;;;6.38;3.17;;;;;;;;;;5104844;28;20036;-43
2023/10/12 17:17:20;;;;;;;6.03;3.58;;;;;;;;;;5106102;28;20039;-37
2023/10/12 17:19:47;;;;;;;6.68;3.13;;;;;;;;;;5105437;28;20240;-36
2023/10/12 17:22:15;;;;;;;6.43;3.35;;;;;;;;;;5105840;28;20308;-41
2023/10/12 17:24:43;;;;;;;5.57;3.00;;;;;;;;;;5105550;28;20024;-37
2023/10/12 17:27:11;;;;;;;5.85;3.40;;;;;;;;;;5105161;28;20039;-38
2023/10/12 17:29:38;;;;;;;7.00;3.30;;;;;;;;;;5105390;28;20035;-44
2023/10/12 17:32:07;;;;;;;5.15;3.75;;;;;;;;;;5105440;28;20028;-39
2023/10/12 17:34:33;;;;;;;6.80;3.45;;;;;;;;;;5105322;28;20028;-43